Time;durP1;ratioP1;P1;durP2;ratioP2;P2;SDS_P1;SDS_P2;PMS_P1;PMS_P2;Temp;Humidity;BMP_temperature;BMP_pressure;BME280_temperature;BME280_humidity;BME280_pressure;Samples;Min_cycle;Max_cycle;Signal;HPM_P1;HPM_P2
2023/12/10 00:00:19;;;;;;;11.20;4.18;;;;;;;14.25;57.66;99193.69;672637;29;1502;-83
2023/12/10 00:00:40;;;;;;;11.05;3.80;;;;;;;14.20;57.83;99188.50;670044;29;1277;-84
2023/12/10 00:01:01;;;;;;;10.60;3.45;;;;;;;14.24;58.24;99205.97;669430;29;1497;-84
2023/12/10 00:01:22;;;;;;;10.57;3.80;;;;;;;14.16;58.10;99192.06;674337;29;1222;-84
2023/12/10 00:01:42;;;;;;;10.27;3.57;;;;;;;14.08;57.70;99180.78;677486;29;1309;-84
2023/12/10 00:02:03;;;;;;;12.68;4.18;;;;;;;14.12;58.14;99187.72;669580;29;1234;-85
2023/12/10 00:02:24;;;;;;;11.35;3.97;;;;;;;14.13;58.26;99186.84;667461;29;1321;-83
2023/12/10 00:02:44;;;;;;;11.77;4.57;;;;;;;14.11;58.22;99191.25;667081;29;1582;-84
2023/12/10 00:03:05;;;;;;;9.20;4.10;;;;;;;14.02;58.12;99197.44;672290;29;1330;-85
2023/12/10 00:03:27;;;;;;;9.80;4.10;;;;;;;14.08;58.11;99191.25;670895;29;1649;-84
2023/12/10 00:03:47;;;;;;;10.77;4.10;;;;;;;14.02;58.42;99207.91;671379;29;1551;-83
2023/12/10 00:04:08;;;;;;;11.67;4.43;;;;;;;13.98;58.48;99186.13;670193;29;1084;-83
2023/12/10 00:04:29;;;;;;;14.05;4.20;;;;;;;13.97;57.53;99210.59;672105;29;1212;-83
2023/12/10 00:04:50;;;;;;;17.45;4.35;;;;;;;13.98;57.50;99201.88;671832;29;1697;-84
2023/12/10 00:05:11;;;;;;;17.20;4.10;;;;;;;14.01;57.36;99200.09;674452;29;1302;-84
2023/12/10 00:05:31;;;;;;;15.32;4.30;;;;;;;14.01;57.38;99195.69;669556;29;1208;-84
2023/12/10 00:05:52;;;;;;;11.43;3.93;;;;;;;14.04;58.03;99193.06;669451;29;1527;-83
2023/12/10 00:06:13;;;;;;;13.02;4.10;;;;;;;14.09;57.97;99204.34;672220;29;965;-85
2023/12/10 00:06:33;;;;;;;14.00;4.00;;;;;;;14.02;57.10;99196.56;669171;29;1357;-83
2023/12/10 00:06:54;;;;;;;19.17;4.67;;;;;;;14.08;57.75;99201.75;665735;29;1640;-84
2023/12/10 00:07:14;;;;;;;19.50;5.07;;;;;;;14.11;57.19;99207.00;666888;29;1176;-84
2023/12/10 00:07:35;;;;;;;23.27;5.30;;;;;;;14.09;57.04;99195.63;669514;29;1044;-85
2023/12/10 00:07:56;;;;;;;20.97;4.77;;;;;;;14.10;57.17;99205.22;669593;29;1181;-84
2023/12/10 00:08:16;;;;;;;20.80;4.32;;;;;;;14.11;57.45;99189.50;667138;29;1248;-84
2023/12/10 00:08:37;;;;;;;14.75;4.10;;;;;;;14.16;57.52;99196.44;666559;29;1072;-84
2023/12/10 00:08:58;;;;;;;14.07;4.10;;;;;;;14.19;57.78;99202.50;669509;29;1551;-84
2023/12/10 00:09:18;;;;;;;12.43;3.92;;;;;;;14.13;57.54;99183.38;671836;29;1281;-83
2023/12/10 00:09:39;;;;;;;17.25;4.00;;;;;;;14.09;57.76;99193.00;671825;29;1168;-84
2023/12/10 00:10:00;;;;;;;13.43;4.00;;;;;;;14.00;56.03;99195.72;672563;29;1638;-84
2023/12/10 00:10:21;;;;;;;17.10;4.25;;;;;;;14.03;56.28;99200.94;669941;29;1012;-84
2023/12/10 00:10:42;;;;;;;13.80;4.32;;;;;;;14.11;56.28;99207.00;669611;29;1242;-84
2023/12/10 00:11:27;;;;;;;17.45;4.10;;;;;;;14.08;56.11;99214.88;674260;29;1520;-84
2023/12/10 00:11:48;;;;;;;14.85;3.75;;;;;;;14.20;56.98;99193.75;671625;29;1983;-84
2023/12/10 00:12:09;;;;;;;11.07;3.58;;;;;;;14.27;56.99;99231.28;669628;29;1424;-84
2023/12/10 00:12:29;;;;;;;14.48;3.97;;;;;;;14.11;56.78;99191.25;669538;29;1343;-85
2023/12/10 00:12:50;;;;;;;14.50;3.80;;;;;;;14.09;56.47;99213.97;668668;29;1734;-84
2023/12/10 00:13:11;;;;;;;16.50;4.20;;;;;;;14.11;56.46;99193.88;672283;29;984;-84
2023/12/10 00:13:32;;;;;;;11.47;3.77;;;;;;;14.09;55.99;99213.97;672168;29;1004;-84
2023/12/10 00:13:52;;;;;;;11.23;3.70;;;;;;;14.16;56.10;99204.31;669394;29;1572;-85
2023/12/10 00:14:13;;;;;;;18.38;4.07;;;;;;;14.09;56.13;99198.25;669583;29;961;-84
2023/12/10 00:14:34;;;;;;;18.23;4.10;;;;;;;14.17;56.23;99206.91;667028;29;1032;-84
2023/12/10 00:14:55;;;;;;;20.90;4.37;;;;;;;14.14;56.29;99195.59;669462;29;1578;-84
2023/12/10 00:15:16;;;;;;;13.07;3.75;;;;;;;14.20;56.40;99199.00;672177;29;1329;-84
2023/12/10 00:15:39;;;;;;;14.00;3.78;;;;;;;14.18;56.24;99198.16;674654;29;1218;-84
2023/12/10 00:16:00;;;;;;;17.02;4.25;;;;;;;14.19;56.49;99192.03;669422;29;1492;-83
2023/12/10 00:16:21;;;;;;;17.83;4.63;;;;;;;14.14;56.31;99198.22;672164;29;1388;-84
2023/12/10 00:16:41;;;;;;;15.95;4.32;;;;;;;14.15;56.13;99213.06;672165;29;1233;-84
2023/12/10 00:17:02;;;;;;;15.93;4.20;;;;;;;13.98;54.91;99195.75;669404;29;1504;-84
2023/12/10 00:17:23;;;;;;;14.75;4.00;;;;;;;14.02;56.37;99207.06;667211;29;1131;-85
2023/12/10 00:17:44;;;;;;;14.80;3.95;;;;;;;14.09;56.50;99203.50;664576;29;1734;-83
2023/12/10 00:18:06;;;;;;;13.43;4.22;;;;;;;14.13;56.25;99202.59;668872;29;1345;-83
2023/12/10 00:18:27;;;;;;;15.32;4.30;;;;;;;14.15;56.29;99208.69;664432;29;1666;-84
2023/12/10 00:18:48;;;;;;;16.67;4.70;;;;;;;14.12;56.52;99206.09;671281;29;1504;-84
2023/12/10 00:19:09;;;;;;;22.70;5.00;;;;;;;14.18;56.66;99205.16;671212;29;1490;-84
2023/12/10 00:19:31;;;;;;;23.27;5.10;;;;;;;14.08;56.30;99193.88;669548;29;1140;-85
2023/12/10 00:19:52;;;;;;;20.90;4.70;;;;;;;13.94;53.82;99204.50;672958;29;1907;-84
2023/12/10 00:20:13;;;;;;;16.80;4.20;;;;;;;13.97;54.04;99207.97;674325;29;1309;-84
2023/12/10 00:20:33;;;;;;;19.90;4.18;;;;;;;14.08;55.55;99196.50;668754;29;1369;-84
2023/12/10 00:20:54;;;;;;;17.00;3.83;;;;;;;14.15;55.99;99192.97;669386;29;1476;-84
2023/12/10 00:21:15;;;;;;;17.57;3.83;;;;;;;14.11;56.06;99197.38;669715;29;1287;-84
2023/12/10 00:21:35;;;;;;;13.85;3.80;;;;;;;14.15;56.26;99187.72;664449;29;1434;-84
2023/12/10 00:21:56;;;;;;;17.00;4.30;;;;;;;14.08;56.24;99205.22;665076;29;1642;-84
2023/12/10 00:22:17;;;;;;;16.90;4.30;;;;;;;14.19;56.20;99214.78;670047;29;1154;-84
2023/12/10 00:22:37;;;;;;;17.30;4.40;;;;;;;14.20;56.02;99217.38;669271;29;1217;-84
2023/12/10 00:22:58;;;;;;;15.63;4.10;;;;;;;14.09;54.88;99203.50;666683;29;1561;-84
2023/12/10 00:23:19;;;;;;;12.32;4.28;;;;;;;14.13;55.64;99194.72;667009;29;1191;-83
2023/12/10 00:23:40;;;;;;;12.65;4.30;;;;;;;14.11;55.26;99202.63;666739;29;1205;-85
2023/12/10 00:24:00;;;;;;;17.23;4.25;;;;;;;14.16;55.74;99210.44;672087;29;1468;-84
2023/12/10 00:24:22;;;;;;;19.90;4.40;;;;;;;14.13;55.56;99206.97;673554;29;1139;-84
2023/12/10 00:24:43;;;;;;;21.90;4.32;;;;;;;14.22;55.77;99220.88;666911;29;1287;-84
2023/12/10 00:25:04;;;;;;;21.02;4.63;;;;;;;14.19;55.88;99228.75;666840;29;1598;-84
2023/12/10 00:25:26;;;;;;;19.27;4.43;;;;;;;14.02;54.91;99222.81;667189;29;1840;-85
2023/12/10 00:25:46;;;;;;;16.85;4.53;;;;;;;14.03;55.01;99207.06;666065;29;1458;-84
2023/12/10 00:26:07;;;;;;;14.68;4.10;;;;;;;14.07;55.09;99210.50;667139;29;1346;-84
2023/12/10 00:26:28;;;;;;;17.57;4.07;;;;;;;14.08;54.87;99213.09;671590;29;1301;-86
2023/12/10 00:26:48;;;;;;;16.08;3.88;;;;;;;14.10;55.28;99216.59;669833;29;1636;-84
2023/12/10 00:27:10;;;;;;;17.63;4.10;;;;;;;14.06;55.50;99208.75;672224;29;1360;-84
2023/12/10 00:27:31;;;;;;;15.20;4.05;;;;;;;14.05;55.48;99201.78;669498;29;1208;-85
2023/12/10 00:27:52;;;;;;;12.68;3.85;;;;;;;14.13;55.53;99213.06;668498;29;1572;-84
2023/12/10 00:28:13;;;;;;;10.88;3.55;;;;;;;14.02;55.27;99218.41;669671;29;1181;-84
2023/12/10 00:28:34;;;;;;;13.85;4.10;;;;;;;14.02;55.39;99212.31;668756;29;1338;-83
2023/12/10 00:28:55;;;;;;;13.82;4.18;;;;;;;14.06;55.79;99224.50;672046;29;1540;-83
2023/12/10 00:29:15;;;;;;;17.98;4.35;;;;;;;14.06;55.64;99220.13;670122;29;1636;-83
2023/12/10 00:29:36;;;;;;;17.73;4.20;;;;;;;14.00;55.83;99211.47;669549;29;1263;-84
2023/12/10 00:29:57;;;;;;;17.10;4.28;;;;;;;14.00;55.64;99216.72;676245;29;1584;-84
2023/12/10 00:30:18;;;;;;;13.60;3.80;;;;;;;13.96;55.49;99208.88;672064;29;1318;-84
2023/12/10 00:30:41;;;;;;;12.30;3.55;;;;;;;13.89;54.93;99220.31;669422;29;1312;-83
2023/12/10 00:31:07;;;;;;;13.43;3.55;;;;;;;13.86;55.53;99222.97;664572;29;1517;-84
2023/12/10 00:31:28;;;;;;;13.07;3.65;;;;;;;13.88;55.34;99226.44;667040;29;1001;-83
2023/12/10 00:31:49;;;;;;;12.57;3.80;;;;;;;13.87;55.35;99216.84;667496;29;1466;-83
2023/12/10 00:32:10;;;;;;;13.07;3.53;;;;;;;13.90;55.20;99227.28;669638;29;1283;-84
2023/12/10 00:32:31;;;;;;;15.23;4.07;;;;;;;13.93;55.38;99229.88;674272;29;1387;-84
2023/12/10 00:32:51;;;;;;;16.25;4.28;;;;;;;13.89;55.31;99217.69;672576;29;1507;-84
2023/12/10 00:33:13;;;;;;;14.50;4.60;;;;;;;13.95;55.66;99225.47;672729;29;1825;-84
2023/12/10 00:33:34;;;;;;;17.17;4.57;;;;;;;13.90;55.30;99235.16;671845;29;1412;-85
2023/12/10 00:33:55;;;;;;;15.90;4.30;;;;;;;13.82;54.51;99231.72;670673;29;1525;-84
2023/12/10 00:34:15;;;;;;;13.70;4.40;;;;;;;13.82;54.94;99221.25;672235;29;1304;-84
2023/12/10 00:34:36;;;;;;;14.30;4.18;;;;;;;13.89;54.99;99222.91;674361;29;1059;-84
2023/12/10 00:34:57;;;;;;;19.17;4.00;;;;;;;13.96;55.36;99223.75;672913;29;1554;-84
2023/12/10 00:35:17;;;;;;;22.17;4.30;;;;;;;14.01;55.30;99218.44;669863;29;1178;-84
2023/12/10 00:35:38;;;;;;;17.88;4.05;;;;;;;14.06;55.19;99221.88;674734;29;1212;-84
2023/12/10 00:35:59;;;;;;;12.88;4.10;;;;;;;14.04;55.35;99221.03;672869;29;1622;-84
2023/12/10 00:36:20;;;;;;;7.93;3.40;;;;;;;13.97;55.45;99231.56;672273;29;1099;-83
2023/12/10 00:36:41;;;;;;;11.18;3.45;;;;;;;13.97;55.23;99246.47;672143;29;1079;-84
2023/12/10 00:37:01;;;;;;;11.07;3.47;;;;;;;13.88;54.42;99233.44;674599;29;1519;-84
2023/12/10 00:37:22;;;;;;;11.48;3.55;;;;;;;13.94;54.74;99235.97;669609;29;1246;-84
2023/12/10 00:37:43;;;;;;;12.70;3.90;;;;;;;13.90;55.12;99235.16;671268;29;1111;-84
2023/12/10 00:38:03;;;;;;;13.80;4.13;;;;;;;13.97;55.00;99239.44;671709;29;1505;-84
2023/12/10 00:38:24;;;;;;;13.43;4.13;;;;;;;14.00;55.25;99246.41;669508;29;1024;-84
2023/12/10 00:38:47;;;;;;;12.60;3.70;;;;;;;13.93;54.65;99235.13;674101;29;1610;-84
2023/12/10 00:39:09;;;;;;;18.52;3.90;;;;;;;14.08;54.72;99238.47;672046;29;1429;-84
2023/12/10 00:39:30;;;;;;;17.65;4.03;;;;;;;14.10;54.85;99234.06;669620;29;1314;-85
2023/12/10 00:39:50;;;;;;;18.90;4.25;;;;;;;14.11;54.87;99236.72;666275;29;1555;-83
2023/12/10 00:40:11;;;;;;;17.42;4.20;;;;;;;14.14;55.09;99233.19;667011;29;1984;-84
2023/12/10 00:40:32;;;;;;;19.42;4.25;;;;;;;14.12;54.93;99240.19;669448;29;1125;-84
2023/12/10 00:40:52;;;;;;;17.50;4.00;;;;;;;14.19;54.95;99252.34;666128;29;1523;-83
2023/12/10 00:41:47;;;;;;;16.90;3.80;;;;;;;14.22;54.79;99247.09;669551;29;1271;-84
2023/12/10 00:42:16;;;;;;;13.75;4.43;;;;;;;14.08;55.04;99254.22;674113;29;1439;-84
2023/12/10 00:42:36;;;;;;;15.15;4.30;;;;;;;14.05;54.26;99251.59;669522;29;1294;-84
2023/12/10 00:42:58;;;;;;;15.77;4.20;;;;;;;14.15;54.59;99255.91;669590;29;1464;-84
2023/12/10 00:43:18;;;;;;;14.10;4.07;;;;;;;14.14;54.56;99243.69;669709;29;1684;-85
2023/12/10 00:43:42;;;;;;;18.23;4.07;;;;;;;14.15;54.58;99245.44;669298;29;1742;-84
2023/12/10 00:44:03;;;;;;;21.58;4.00;;;;;;;14.14;54.31;99246.31;671623;29;1586;-84
2023/12/10 00:44:24;;;;;;;23.98;4.40;;;;;;;14.16;54.37;99249.78;671295;29;1380;-85
2023/12/10 00:44:45;;;;;;;19.60;4.37;;;;;;;14.20;54.55;99245.38;671466;29;1526;-83
2023/12/10 00:45:06;;;;;;;14.13;4.30;;;;;;;14.23;54.48;99259.31;667170;29;1241;-84
2023/12/10 00:45:27;;;;;;;10.65;3.60;;;;;;;14.23;54.17;99247.94;668014;29;1194;-85
2023/12/10 00:45:48;;;;;;;12.48;3.90;;;;;;;14.24;54.09;99244.44;673067;29;1585;-84
2023/12/10 00:46:10;;;;;;;14.55;4.20;;;;;;;14.38;54.32;99263.50;671996;29;1375;-84
2023/12/10 00:46:31;;;;;;;17.88;4.60;;;;;;;14.35;54.57;99254.81;672041;29;1301;-85
2023/12/10 00:46:51;;;;;;;15.93;4.50;;;;;;;14.38;54.26;99254.78;671896;29;1460;-84
2023/12/10 00:47:12;;;;;;;17.33;4.47;;;;;;;14.32;54.19;99250.47;669552;29;973;-83
2023/12/10 00:47:33;;;;;;;12.15;3.85;;;;;;;14.29;54.10;99249.63;672140;29;1110;-84
2023/12/10 00:47:53;;;;;;;12.43;3.50;;;;;;;14.33;54.16;99259.22;671643;29;1728;-84
2023/12/10 00:48:14;;;;;;;10.68;3.70;;;;;;;14.30;54.22;99253.97;666998;29;1319;-83
2023/12/10 00:48:40;;;;;;;10.95;3.80;;;;;;;14.31;54.15;99243.47;671391;29;986;-85
2023/12/10 00:49:00;;;;;;;14.80;4.35;;;;;;;14.40;54.04;99255.63;672462;29;1499;-84
2023/12/10 00:49:21;;;;;;;14.87;4.30;;;;;;;14.33;54.03;99265.31;669237;29;1275;-84
2023/12/10 00:49:43;;;;;;;13.70;4.27;;;;;;;14.32;54.19;99257.47;671995;29;1208;-84
2023/12/10 00:50:04;;;;;;;10.38;3.75;;;;;;;14.35;54.02;99254.81;671720;29;1610;-84
2023/12/10 00:50:25;;;;;;;11.05;3.50;;;;;;;14.39;54.35;99274.88;671949;29;1275;-84
2023/12/10 00:50:46;;;;;;;12.68;3.80;;;;;;;14.32;54.38;99246.97;669177;29;1600;-84
2023/12/10 00:51:07;;;;;;;15.18;3.83;;;;;;;14.41;54.24;99262.59;672312;29;1112;-84
2023/12/10 00:51:28;;;;;;;17.08;4.20;;;;;;;14.32;54.20;99255.69;672306;29;1370;-84
2023/12/10 00:51:48;;;;;;;19.13;4.38;;;;;;;14.39;54.09;99270.50;670900;29;1527;-84
2023/12/10 00:52:09;;;;;;;15.35;4.30;;;;;;;14.35;54.25;99267.94;667563;29;1118;-83
2023/12/10 00:52:30;;;;;;;13.85;3.90;;;;;;;14.31;54.03;99263.63;666478;29;1335;-83
2023/12/10 00:52:51;;;;;;;13.73;3.50;;;;;;;14.25;54.11;99264.53;669646;29;1567;-83
2023/12/10 00:53:11;;;;;;;17.40;3.87;;;;;;;14.18;52.38;99260.22;674799;29;980;-84
2023/12/10 00:53:32;;;;;;;19.70;4.10;;;;;;;14.27;53.41;99265.41;669597;29;1168;-85
2023/12/10 00:53:53;;;;;;;17.83;4.40;;;;;;;14.28;53.04;99255.75;673459;29;1578;-84
2023/12/10 00:54:16;;;;;;;18.20;4.65;;;;;;;14.26;54.00;99253.19;669340;29;1392;-84
2023/12/10 00:54:37;;;;;;;17.95;4.60;;;;;;;14.32;53.77;99252.22;664388;29;1284;-83
2023/12/10 00:54:58;;;;;;;19.17;4.60;;;;;;;14.34;53.83;99274.94;671818;29;1487;-84
2023/12/10 00:55:19;;;;;;;16.55;3.90;;;;;;;14.30;53.24;99273.22;671994;29;1299;-83
2023/12/10 00:55:39;;;;;;;17.10;3.95;;;;;;;14.34;53.05;99264.44;672482;29;1218;-84
2023/12/10 00:56:00;;;;;;;14.77;4.10;;;;;;;14.39;53.38;99256.53;672687;29;1562;-84
2023/12/10 00:56:21;;;;;;;16.75;4.40;;;;;;;14.43;53.46;99273.09;667134;29;1207;-83
2023/12/10 00:56:42;;;;;;;16.35;4.40;;;;;;;14.42;53.43;99261.72;669259;29;1206;-84
2023/12/10 00:57:02;;;;;;;15.77;3.70;;;;;;;14.42;53.40;99266.09;669449;29;1488;-83
2023/12/10 00:57:23;;;;;;;11.77;3.80;;;;;;;14.33;53.29;99264.47;669958;29;1527;-83
2023/12/10 00:57:44;;;;;;;8.93;3.60;;;;;;;14.33;52.98;99256.59;671936;29;1162;-84
2023/12/10 00:58:05;;;;;;;11.97;4.40;;;;;;;14.40;53.79;99253.00;671874;29;1554;-84
2023/12/10 00:58:25;;;;;;;15.95;4.50;;;;;;;14.29;52.85;99274.13;668815;29;1168;-85
2023/12/10 00:58:46;;;;;;;22.38;4.97;;;;;;;14.31;53.16;99258.38;668532;29;1617;-84
2023/12/10 00:59:06;;;;;;;22.93;4.40;;;;;;;14.40;53.42;99258.25;669561;29;1207;-84
2023/12/10 00:59:27;;;;;;;19.88;4.18;;;;;;;14.42;53.06;99263.47;664518;29;1251;-85
2023/12/10 00:59:47;;;;;;;20.43;4.10;;;;;;;14.49;53.14;99257.25;671373;29;1629;-84
2023/12/10 01:00:09;;;;;;;19.00;4.13;;;;;;;14.46;53.28;99260.81;672238;29;1976;-84
2023/12/10 01:00:30;;;;;;;17.30;3.72;;;;;;;14.48;53.23;99273.88;666472;29;1376;-83
2023/12/10 01:00:51;;;;;;;13.00;3.70;;;;;;;14.29;52.54;99247.88;669513;29;1503;-84
2023/12/10 01:01:12;;;;;;;16.15;4.00;;;;;;;14.40;53.15;99271.38;667061;29;1319;-84
2023/12/10 01:01:32;;;;;;;15.80;4.47;;;;;;;14.37;52.99;99253.03;665880;29;1459;-83
2023/12/10 01:01:53;;;;;;;13.63;4.40;;;;;;;14.39;53.12;99264.38;664202;29;1586;-85
2023/12/10 01:02:13;;;;;;;16.20;4.50;;;;;;;14.46;52.92;99271.31;669157;29;1674;-84
2023/12/10 01:02:34;;;;;;;19.35;4.43;;;;;;;14.43;53.01;99260.81;669450;29;1258;-84
2023/12/10 01:02:56;;;;;;;20.90;4.27;;;;;;;14.42;53.19;99251.22;666819;29;1636;-84
2023/12/10 01:03:17;;;;;;;14.52;3.80;;;;;;;14.47;52.95;99259.91;666962;29;1274;-84
2023/12/10 01:03:37;;;;;;;14.55;3.97;;;;;;;14.39;52.50;99264.38;669363;29;1133;-83
2023/12/10 01:03:58;;;;;;;12.18;3.92;;;;;;;14.45;52.58;99263.44;671894;29;1483;-84
2023/12/10 01:04:19;;;;;;;11.80;4.10;;;;;;;14.38;51.85;99267.91;666948;29;1130;-83
2023/12/10 01:04:41;;;;;;;13.00;4.20;;;;;;;14.29;52.75;99273.25;666427;29;1238;-85
2023/12/10 01:05:02;;;;;;;10.50;4.18;;;;;;;14.35;52.53;99270.53;668700;29;1607;-85
2023/12/10 01:05:23;;;;;;;11.52;4.20;;;;;;;14.36;52.42;99264.41;669476;29;996;-84
2023/12/10 01:05:44;;;;;;;12.95;4.22;;;;;;;14.43;52.57;99259.97;669555;29;941;-84
2023/12/10 01:06:06;;;;;;;15.48;3.92;;;;;;;14.38;52.70;99267.91;669304;29;1607;-84
2023/12/10 01:06:26;;;;;;;18.40;3.90;;;;;;;14.35;52.58;99253.06;664510;29;1311;-84
2023/12/10 01:06:47;;;;;;;16.48;3.83;;;;;;;14.44;52.52;99262.56;664790;29;1528;-85
2023/12/10 01:07:08;;;;;;;14.55;3.95;;;;;;;14.50;52.51;99265.13;668841;29;1288;-84
2023/12/10 01:07:29;;;;;;;13.48;4.10;;;;;;;14.51;52.47;99258.97;669394;29;1336;-85
2023/12/10 01:07:49;;;;;;;14.55;4.28;;;;;;;14.44;52.41;99262.56;666891;29;1663;-84
2023/12/10 01:08:10;;;;;;;18.13;4.43;;;;;;;14.43;52.39;99266.06;664339;29;1626;-84
2023/12/10 01:08:31;;;;;;;20.02;4.72;;;;;;;14.40;52.51;99258.25;666309;29;1383;-85
2023/12/10 01:08:51;;;;;;;20.52;4.50;;;;;;;14.46;52.33;99263.44;667502;29;1559;-84
2023/12/10 01:09:15;;;;;;;14.93;4.20;;;;;;;14.41;52.34;99261.72;672291;29;1110;-84
2023/12/10 01:09:38;;;;;;;16.15;4.05;;;;;;;14.33;52.14;99253.97;672019;29;1125;-84
2023/12/10 01:09:59;;;;;;;17.05;4.38;;;;;;;14.32;51.94;99252.22;672069;29;1513;-83
2023/12/10 01:10:19;;;;;;;18.52;4.40;;;;;;;14.29;52.01;99254.88;667016;29;1275;-84
2023/12/10 01:10:40;;;;;;;12.97;4.37;;;;;;;14.21;51.81;99252.34;667048;29;1141;-85
2023/12/10 01:11:01;;;;;;;12.23;3.80;;;;;;;14.35;51.94;99274.06;665005;29;1525;-84
2023/12/10 01:11:21;;;;;;;14.98;4.00;;;;;;;14.25;52.27;99267.16;667136;29;1140;-83
2023/12/10 01:11:42;;;;;;;15.45;3.70;;;;;;;14.16;50.73;99278.63;670419;29;1177;-84
2023/12/10 01:12:03;;;;;;;15.03;3.80;;;;;;;14.23;51.33;99268.94;671711;29;1512;-84
2023/12/10 01:12:23;;;;;;;13.63;3.58;;;;;;;14.23;51.75;99258.44;669352;29;1226;-84
2023/12/10 01:12:44;;;;;;;13.63;3.63;;;;;;;14.29;51.56;99266.25;669112;29;1190;-84
2023/12/10 01:13:05;;;;;;;13.63;3.92;;;;;;;14.24;50.88;99279.41;669264;29;1525;-84
2023/12/10 01:13:26;;;;;;;14.05;3.80;;;;;;;14.37;51.11;99266.13;671900;29;1104;-85
2023/12/10 01:13:47;;;;;;;14.63;3.70;;;;;;;14.35;51.18;99267.94;668631;29;1535;-84
2023/12/10 01:14:08;;;;;;;15.20;3.55;;;;;;;14.36;51.40;99267.03;670073;29;970;-85
2023/12/10 01:14:29;;;;;;;15.33;3.83;;;;;;;14.45;51.40;99273.94;667349;29;993;-85
2023/12/10 01:14:50;;;;;;;16.42;3.67;;;;;;;14.45;51.47;99274.78;671803;29;1523;-84
2023/12/10 01:15:11;;;;;;;20.35;3.70;;;;;;;14.38;50.25;99296.78;674563;29;1294;-84
2023/12/10 01:15:31;;;;;;;18.35;3.85;;;;;;;14.39;50.11;99261.78;674486;29;1322;-83
2023/12/10 01:15:54;;;;;;;16.60;4.00;;;;;;;14.46;50.54;99259.94;674502;29;1478;-84
2023/12/10 01:16:18;;;;;;;19.90;3.70;;;;;;;14.53;51.04;99269.47;674732;29;1126;-84
2023/12/10 01:16:40;;;;;;;18.02;3.38;;;;;;;14.35;50.30;99267.94;670168;29;1439;-84
2023/12/10 01:17:01;;;;;;;13.68;3.20;;;;;;;14.42;50.55;99261.72;674253;29;1518;-84
2023/12/10 01:17:21;;;;;;;11.15;3.20;;;;;;;14.47;50.98;99259.91;674750;29;793;-84
2023/12/10 01:17:42;;;;;;;14.03;3.87;;;;;;;14.48;51.42;99253.78;669452;29;1186;-84
2023/12/10 01:18:03;;;;;;;17.93;4.50;;;;;;;14.56;51.33;99261.53;671392;29;1495;-84
2023/12/10 01:18:24;;;;;;;17.33;4.20;;;;;;;14.56;51.41;99271.19;671187;29;1215;-84
2023/12/10 01:18:46;;;;;;;17.35;4.10;;;;;;;14.53;51.48;99262.44;671405;29;965;-84
2023/12/10 01:19:07;;;;;;;14.80;3.90;;;;;;;14.56;51.51;99279.91;668557;29;1368;-83
2023/12/10 01:19:28;;;;;;;12.80;4.00;;;;;;;14.56;51.48;99265.94;666955;29;1309;-84
2023/12/10 01:19:48;;;;;;;15.60;4.00;;;;;;;14.53;51.49;99267.69;669050;29;1535;-84
2023/12/10 01:20:09;;;;;;;14.18;3.83;;;;;;;14.53;51.61;99265.06;666998;29;2005;-83
2023/12/10 01:20:32;;;;;;;14.02;3.90;;;;;;;14.57;51.10;99272.91;669519;29;1015;-85
2023/12/10 01:20:52;;;;;;;12.63;4.00;;;;;;;14.52;51.42;99257.22;671790;29;1609;-84
2023/12/10 01:21:13;;;;;;;13.60;4.30;;;;;;;14.34;50.99;99267.06;672085;29;1451;-84
2023/12/10 01:21:34;;;;;;;19.75;4.82;;;;;;;14.44;51.55;99267.81;671796;29;1391;-84
2023/12/10 01:21:55;;;;;;;15.80;4.53;;;;;;;14.44;51.70;99272.22;672995;29;1586;-84
2023/12/10 01:22:16;;;;;;;20.57;4.77;;;;;;;14.41;50.99;99275.72;674529;29;1036;-84
2023/12/10 01:22:37;;;;;;;18.98;4.60;;;;;;;14.21;49.77;99276.81;671970;29;1296;-84
2023/12/10 01:22:58;;;;;;;24.83;4.68;;;;;;;14.37;50.62;99272.28;675532;29;1494;-84
2023/12/10 01:23:19;;;;;;;20.15;4.07;;;;;;;14.41;50.85;99273.09;666977;29;1191;-84
2023/12/10 01:23:40;;;;;;;16.35;4.40;;;;;;;14.46;50.86;99286.19;669413;29;1096;-84
2023/12/10 01:24:00;;;;;;;13.00;4.30;;;;;;;14.36;50.17;99264.41;667483;29;1991;-84
2023/12/10 01:24:21;;;;;;;11.98;4.38;;;;;;;14.44;50.59;99269.59;669495;29;1100;-84
2023/12/10 01:24:42;;;;;;;10.60;4.00;;;;;;;14.40;50.37;99268.75;669327;29;1128;-84
2023/12/10 01:25:03;;;;;;;11.07;3.85;;;;;;;14.38;50.45;99273.16;665840;29;1618;-84
2023/12/10 01:25:25;;;;;;;9.95;3.55;;;;;;;14.45;50.54;99282.66;666949;29;1280;-83
2023/12/10 01:25:45;;;;;;;11.70;4.25;;;;;;;14.52;50.81;99271.22;672024;29;1760;-84
2023/12/10 01:26:07;;;;;;;14.80;4.70;;;;;;;14.53;50.85;99287.84;671449;29;1682;-84
2023/12/10 01:26:27;;;;;;;15.18;4.60;;;;;;;14.48;50.80;99277.41;669266;29;1366;-84
2023/12/10 01:26:48;;;;;;;16.20;4.10;;;;;;;14.56;51.17;99281.69;664212;29;1622;-83
2023/12/10 01:27:09;;;;;;;15.15;4.18;;;;;;;14.57;51.18;99278.16;669495;29;1153;-84
2023/12/10 01:27:30;;;;;;;16.75;4.20;;;;;;;14.56;51.20;99265.94;666967;29;1263;-84
2023/12/10 01:27:54;;;;;;;14.80;4.00;;;;;;;14.57;51.12;99278.16;667308;29;1632;-83
2023/12/10 01:28:15;;;;;;;13.18;3.83;;;;;;;14.45;50.73;99272.16;669088;29;1267;-84
2023/12/10 01:28:35;;;;;;;11.80;3.97;;;;;;;14.49;50.91;99283.50;668667;29;1318;-83
2023/12/10 01:28:56;;;;;;;12.90;4.23;;;;;;;14.48;51.20;99285.28;673094;29;1478;-84
2023/12/10 01:29:17;;;;;;;11.77;4.40;;;;;;;14.50;51.34;99295.75;674688;29;945;-84
2023/12/10 01:29:37;;;;;;;10.93;4.18;;;;;;;14.38;50.16;99286.28;669979;29;1048;-83
2023/12/10 01:29:58;;;;;;;9.90;4.20;;;;;;;14.33;51.05;99301.19;671662;29;1498;-84
2023/12/10 01:30:23;;;;;;;10.60;3.75;;;;;;;14.33;50.66;99275.81;672219;29;1192;-84
2023/12/10 01:30:44;;;;;;;10.98;3.70;;;;;;;14.41;50.91;99283.59;669267;29;1364;-83
2023/12/10 01:31:05;;;;;;;10.57;4.05;;;;;;;14.38;50.79;99281.88;669311;29;1529;-84
2023/12/10 01:31:26;;;;;;;12.05;3.90;;;;;;;14.45;50.79;99292.31;666788;29;1485;-84
2023/12/10 01:31:47;;;;;;;11.90;3.47;;;;;;;14.37;50.54;99285.41;669406;29;1115;-84
2023/12/10 01:32:10;;;;;;;12.43;3.30;;;;;;;14.43;50.46;99292.31;668965;29;1291;-84
2023/12/10 01:32:31;;;;;;;17.10;4.03;;;;;;;14.41;50.86;99288.84;669347;29;1295;-85
2023/12/10 01:32:53;;;;;;;19.10;3.70;;;;;;;14.42;50.58;99308.97;670235;29;1539;-84
2023/12/10 01:33:13;;;;;;;21.10;3.78;;;;;;;14.39;50.86;99283.63;669433;29;1414;-83
2023/12/10 01:33:34;;;;;;;17.88;3.70;;;;;;;14.38;50.58;99299.41;666772;29;1333;-84
2023/12/10 01:33:55;;;;;;;17.10;4.17;;;;;;;14.31;50.82;99282.84;669421;29;1591;-84
2023/12/10 01:34:16;;;;;;;12.32;3.85;;;;;;;14.39;50.98;99291.50;671458;29;1642;-84
2023/12/10 01:34:37;;;;;;;12.00;3.50;;;;;;;14.39;51.38;99286.25;671897;29;1569;-85
2023/12/10 01:34:57;;;;;;;9.82;3.40;;;;;;;14.38;50.73;99299.41;668706;29;1638;-84
2023/12/10 01:35:18;;;;;;;12.17;3.40;;;;;;;14.32;50.79;99283.72;669462;29;1272;-83
2023/12/10 01:35:39;;;;;;;12.63;3.53;;;;;;;14.32;50.09;99307.34;664276;29;1290;-84
2023/12/10 01:35:59;;;;;;;13.93;3.75;;;;;;;14.34;49.91;99281.94;671986;29;1577;-84
2023/12/10 01:36:23;;;;;;;10.20;3.80;;;;;;;14.35;49.56;99288.91;671889;29;1464;-84
2023/12/10 01:36:44;;;;;;;10.77;3.92;;;;;;;14.39;49.83;99301.13;666788;29;1339;-84
2023/12/10 01:37:04;;;;;;;12.30;3.77;;;;;;;14.38;49.25;99304.66;674347;29;1871;-84
2023/12/10 01:37:26;;;;;;;15.25;3.72;;;;;;;14.38;49.78;99299.41;674549;29;1218;-84
2023/12/10 01:37:47;;;;;;;16.52;3.70;;;;;;;14.37;50.04;99287.13;669641;29;1275;-84
2023/12/10 01:38:08;;;;;;;16.80;3.83;;;;;;;14.37;50.13;99279.25;666945;29;1133;-83
2023/12/10 01:38:28;;;;;;;14.63;3.78;;;;;;;14.36;50.60;99299.41;666723;29;999;-85
2023/12/10 01:38:50;;;;;;;14.00;3.90;;;;;;;14.35;50.09;99284.56;666031;29;1618;-84
2023/12/10 01:39:12;;;;;;;14.75;3.85;;;;;;;14.40;50.06;99295.00;664952;29;1444;-84
2023/12/10 01:39:33;;;;;;;15.70;4.00;;;;;;;14.51;50.29;99306.22;666627;29;1481;-84
2023/12/10 01:39:54;;;;;;;16.45;4.22;;;;;;;14.50;49.98;99309.75;666710;29;1614;-83
2023/12/10 01:40:15;;;;;;;16.83;4.40;;;;;;;14.48;49.43;99313.25;668737;29;1173;-84
2023/12/10 01:40:36;;;;;;;14.55;3.80;;;;;;;14.51;49.87;99300.97;666460;29;1508;-84
2023/12/10 01:40:56;;;;;;;13.37;3.83;;;;;;;14.53;50.45;99309.69;667745;29;1504;-84
2023/12/10 01:41:18;;;;;;;10.68;3.92;;;;;;;14.56;50.70;99297.44;669459;29;1256;-85